Time;durP1;ratioP1;P1;durP2;ratioP2;P2;SDS_P1;SDS_P2;PMS_P1;PMS_P2;Temp;Humidity;BMP_temperature;BMP_pressure;BME280_temperature;BME280_humidity;BME280_pressure;Samples;Min_cycle;Max_cycle;Signal;HPM_P1;HPM_P2
2021/11/30 00:00:08;;;;;;;16.40;6.80;;;2.40;97.30;;;;;;4995471;28;20456;-80
2021/11/30 00:02:33;;;;;;;19.33;8.57;;;2.40;97.30;;;;;;4995431;28;20490;-80
2021/11/30 00:04:59;;;;;;;22.07;8.60;;;2.40;97.30;;;;;;4996089;28;20945;-80
2021/11/30 00:07:25;;;;;;;14.97;7.70;;;2.40;97.30;;;;;;4996963;28;20201;-80
2021/11/30 00:12:22;;;;;;;18.93;9.23;;;2.30;97.30;;;;;;4997760;28;20178;-81
2021/11/30 00:14:50;;;;;;;18.60;8.03;;;2.30;97.30;;;;;;4996704;28;20182;-80
2021/11/30 00:17:18;;;;;;;17.43;8.17;;;2.30;97.30;;;;;;4996769;28;20460;-81
2021/11/30 00:19:48;;;;;;;17.07;6.77;;;2.30;97.30;;;;;;4996735;28;20421;-81
2021/11/30 00:22:17;;;;;;;14.50;6.60;;;2.30;97.30;;;;;;4998413;28;20424;-81
2021/11/30 00:24:42;;;;;;;18.30;8.13;;;2.20;97.30;;;;;;4997237;28;20417;-81
2021/11/30 00:27:08;;;;;;;42.87;19.73;;;2.20;97.30;;;;;;4996943;28;20440;-81
2021/11/30 00:29:35;;;;;;;16.53;6.73;;;2.20;97.30;;;;;;4997511;28;20182;-81
2021/11/30 00:32:02;;;;;;;19.70;8.70;;;2.20;97.30;;;;;;4997350;28;20178;-81
2021/11/30 00:34:28;;;;;;;20.87;7.73;;;2.20;97.30;;;;;;4997265;28;20497;-81
2021/11/30 00:36:54;;;;;;;14.03;6.70;;;2.20;97.30;;;;;;4998061;28;20457;-81
2021/11/30 00:39:20;;;;;;;21.73;7.67;;;2.10;97.30;;;;;;4997567;28;20201;-81
2021/11/30 00:41:55;;;;;;;18.67;7.57;;;2.10;97.30;;;;;;4997674;28;20420;-81
2021/11/30 00:44:26;;;;;;;15.30;7.20;;;2.10;97.30;;;;;;4994287;28;20602;-81
2021/11/30 00:46:56;;;;;;;19.30;7.20;;;2.10;97.30;;;;;;4979354;28;20537;-80
2021/11/30 00:49:25;;;;;;;23.63;9.00;;;2.10;97.30;;;;;;4977750;28;20462;-81
2021/11/30 00:51:54;;;;;;;19.47;8.17;;;2.10;97.30;;;;;;4984360;28;20480;-81
2021/11/30 00:54:27;;;;;;;20.47;7.40;;;2.10;97.30;;;;;;4997512;28;20488;-80
2021/11/30 00:56:57;;;;;;;17.07;6.40;;;2.10;97.30;;;;;;4999261;28;20479;-81
2021/11/30 00:59:27;;;;;;;22.43;8.53;;;2.10;97.30;;;;;;4998674;28;20428;-80
2021/11/30 01:01:59;;;;;;;17.83;7.27;;;2.10;97.30;;;;;;4997781;28;20572;-80
2021/11/30 01:04:30;;;;;;;16.30;6.70;;;2.00;97.30;;;;;;4999252;28;21014;-81
2021/11/30 01:06:55;;;;;;;13.77;6.17;;;2.00;97.30;;;;;;4998897;28;20437;-80
2021/11/30 01:09:21;;;;;;;18.10;8.40;;;2.00;97.30;;;;;;4996436;28;20479;-80
2021/11/30 01:11:47;;;;;;;19.53;7.80;;;1.90;97.30;;;;;;4996869;28;20284;-81
2021/11/30 01:14:13;;;;;;;16.83;6.43;;;1.90;97.30;;;;;;4996494;28;20173;-82
2021/11/30 01:16:39;;;;;;;18.20;6.63;;;1.90;97.30;;;;;;4994075;28;20441;-82
2021/11/30 01:19:05;;;;;;;14.80;6.40;;;1.90;97.30;;;;;;4994234;28;20178;-83
2021/11/30 01:21:32;;;;;;;17.13;7.20;;;1.80;97.30;;;;;;4995274;28;20464;-83
2021/11/30 01:23:58;;;;;;;21.17;7.03;;;1.80;97.30;;;;;;4994721;28;20428;-82
2021/11/30 01:26:23;;;;;;;18.77;6.23;;;1.70;97.30;;;;;;4995294;28;20448;-81
2021/11/30 01:28:49;;;;;;;20.10;6.60;;;1.70;97.30;;;;;;4996082;28;20198;-81
2021/11/30 01:31:15;;;;;;;19.67;7.13;;;1.70;97.30;;;;;;4999329;28;20340;-81
2021/11/30 01:33:40;;;;;;;18.17;5.80;;;1.70;97.30;;;;;;5002290;28;20569;-81
2021/11/30 01:36:06;;;;;;;14.63;6.43;;;1.70;97.30;;;;;;5002106;28;20197;-81
2021/11/30 01:38:32;;;;;;;14.90;5.20;;;1.60;97.30;;;;;;5003094;28;20268;-82
2021/11/30 01:41:02;;;;;;;9.80;4.40;;;1.60;97.30;;;;;;5002206;28;20177;-82
2021/11/30 01:43:36;;;;;;;12.77;4.80;;;1.60;97.30;;;;;;5000250;28;20512;-81
2021/11/30 01:46:13;;;;;;;10.37;5.27;;;1.60;97.30;;;;;;5000666;28;20502;-81
2021/11/30 01:51:25;;;;;;;13.83;5.47;;;1.50;97.30;;;;;;5001807;28;20400;-81
2021/11/30 01:53:52;;;;;;;14.90;6.13;;;1.50;97.30;;;;;;5000136;28;20489;-81
2021/11/30 01:56:19;;;;;;;10.27;4.47;;;1.50;97.30;;;;;;5000044;28;20436;-81
2021/11/30 01:58:45;;;;;;;12.57;5.57;;;1.50;97.30;;;;;;5000024;28;20417;-81
2021/11/30 02:01:12;;;;;;;9.53;4.67;;;1.50;97.30;;;;;;4999645;28;20499;-81
2021/11/30 02:03:38;;;;;;;11.00;4.60;;;1.50;97.30;;;;;;4999966;28;20535;-81
2021/11/30 02:06:04;;;;;;;12.10;5.60;;;1.50;97.30;;;;;;4999389;28;20977;-80
2021/11/30 02:08:30;;;;;;;12.50;4.73;;;1.50;97.30;;;;;;4999475;28;20460;-81
2021/11/30 02:10:57;;;;;;;12.70;5.17;;;1.50;97.30;;;;;;4999182;28;21069;-81
2021/11/30 02:13:23;;;;;;;15.00;5.17;;;1.50;97.30;;;;;;4999555;28;20264;-81
2021/11/30 02:15:52;;;;;;;14.70;5.90;;;1.50;97.30;;;;;;4999650;28;20433;-81
2021/11/30 02:18:24;;;;;;;11.13;4.77;;;1.50;97.30;;;;;;4999575;28;20420;-82
2021/11/30 02:20:58;;;;;;;11.47;5.70;;;1.50;97.30;;;;;;5000920;28;20397;-81
2021/11/30 02:26:01;;;;;;;13.20;5.70;;;1.40;97.30;;;;;;5001153;28;20438;-81
2021/11/30 02:28:26;;;;;;;12.50;5.13;;;1.40;97.30;;;;;;4999403;28;20517;-81
2021/11/30 02:30:52;;;;;;;7.70;3.90;;;1.40;97.30;;;;;;4999508;28;20932;-80
2021/11/30 02:33:18;;;;;;;14.20;5.03;;;1.40;97.30;;;;;;5001019;28;20170;-81
2021/11/30 02:35:43;;;;;;;14.40;6.60;;;1.40;97.30;;;;;;4999165;28;20432;-81
2021/11/30 02:38:10;;;;;;;12.33;4.90;;;1.40;97.30;;;;;;5000648;28;20169;-82
2021/11/30 02:40:36;;;;;;;14.17;4.43;;;1.40;97.30;;;;;;5000882;28;20842;-81
2021/11/30 02:43:04;;;;;;;12.97;4.70;;;1.40;97.30;;;;;;4997346;28;20958;-82
2021/11/30 02:45:30;;;;;;;13.03;5.73;;;1.40;97.30;;;;;;4996957;28;20449;-82
2021/11/30 02:47:56;;;;;;;16.10;5.77;;;1.40;97.30;;;;;;4996687;28;20464;-82
2021/11/30 02:50:23;;;;;;;9.30;5.20;;;1.50;97.30;;;;;;4997063;28;20443;-81
2021/11/30 02:52:48;;;;;;;9.80;4.40;;;1.50;97.30;;;;;;4996416;28;20420;-82
2021/11/30 02:55:14;;;;;;;9.47;4.77;;;1.50;97.30;;;;;;4992487;28;20447;-81
2021/11/30 02:57:39;;;;;;;9.10;4.83;;;1.50;97.30;;;;;;4977018;28;20269;-82
2021/11/30 03:00:07;;;;;;;11.07;4.30;;;1.50;97.30;;;;;;4995611;28;20184;-82
2021/11/30 03:02:33;;;;;;;9.30;4.30;;;1.50;97.30;;;;;;4997776;28;20228;-82
2021/11/30 03:05:00;;;;;;;9.70;4.63;;;1.50;97.30;;;;;;4996151;28;20535;-82
2021/11/30 03:07:37;;;;;;;11.20;4.40;;;1.50;97.30;;;;;;4996738;28;20487;-82
2021/11/30 03:10:12;;;;;;;11.27;4.93;;;1.50;97.30;;;;;;4996732;28;20977;-81
2021/11/30 03:12:38;;;;;;;10.80;4.27;;;1.50;97.30;;;;;;4995379;28;20452;-82
2021/11/30 03:15:13;;;;;;;12.57;5.13;;;1.60;97.30;;;;;;4995852;28;20407;-82
2021/11/30 03:17:39;;;;;;;7.97;4.53;;;1.60;97.30;;;;;;4997721;28;20751;-81
2021/11/30 03:20:05;;;;;;;9.30;5.13;;;1.60;97.30;;;;;;4995298;28;20432;-82
2021/11/30 03:22:31;;;;;;;9.10;4.60;;;1.60;97.30;;;;;;4979697;28;20429;-82
2021/11/30 03:24:57;;;;;;;10.63;4.30;;;1.60;97.30;;;;;;4995817;28;20427;-81
2021/11/30 03:27:23;;;;;;;10.87;5.00;;;1.70;97.30;;;;;;4995396;28;20204;-82
2021/11/30 03:29:49;;;;;;;9.47;4.00;;;1.70;97.30;;;;;;4995514;28;20421;-82
2021/11/30 03:35:00;;;;;;;7.80;4.17;;;1.70;97.30;;;;;;4997192;28;20177;-81
2021/11/30 03:37:25;;;;;;;6.70;3.43;;;1.70;97.30;;;;;;4995784;28;20440;-81
2021/11/30 03:39:52;;;;;;;10.77;3.87;;;1.80;97.30;;;;;;4995677;28;20472;-80
2021/11/30 03:42:18;;;;;;;12.33;4.30;;;1.80;97.30;;;;;;4995824;28;20280;-81
2021/11/30 03:44:44;;;;;;;7.83;4.20;;;1.90;97.30;;;;;;4996124;28;20423;-81
2021/11/30 03:47:09;;;;;;;6.70;3.93;;;1.90;97.30;;;;;;4996045;28;20530;-80
2021/11/30 03:49:35;;;;;;;6.60;3.60;;;2.00;97.30;;;;;;4995122;28;20293;-81
2021/11/30 03:52:00;;;;;;;20.70;4.50;;;2.00;97.30;;;;;;4995371;28;20747;-82
2021/11/30 03:54:27;;;;;;;7.90;3.77;;;2.00;97.30;;;;;;4994144;28;20184;-82
2021/11/30 03:56:53;;;;;;;13.03;4.33;;;2.00;97.30;;;;;;4995181;28;20225;-82
2021/11/30 03:59:19;;;;;;;12.67;4.53;;;1.80;97.30;;;;;;4982430;28;20426;-83
2021/11/30 04:01:45;;;;;;;13.80;4.90;;;1.70;97.30;;;;;;4976617;28;20465;-82
2021/11/30 04:04:12;;;;;;;9.40;4.20;;;1.60;97.30;;;;;;4974902;28;20189;-82
2021/11/30 04:06:38;;;;;;;13.03;4.93;;;1.50;97.30;;;;;;4974683;28;20440;-82
2021/11/30 04:09:04;;;;;;;7.73;3.60;;;1.50;97.30;;;;;;4974872;28;20468;-83
2021/11/30 04:11:31;;;;;;;11.97;4.20;;;1.50;97.30;;;;;;4975593;28;20922;-82
2021/11/30 04:13:57;;;;;;;11.70;5.07;;;1.50;97.30;;;;;;4974884;28;20421;-82
2021/11/30 04:16:22;;;;;;;10.63;4.90;;;1.60;97.30;;;;;;4975697;28;20985;-82
2021/11/30 04:18:48;;;;;;;10.63;5.30;;;1.60;97.30;;;;;;4975191;28;20669;-82
2021/11/30 04:21:13;;;;;;;10.40;5.30;;;1.70;97.30;;;;;;4976132;28;20189;-82
2021/11/30 04:23:39;;;;;;;10.73;4.50;;;1.70;97.30;;;;;;4975747;28;20189;-82
2021/11/30 04:26:05;;;;;;;12.90;5.33;;;1.70;97.30;;;;;;4975700;28;20572;-82
2021/11/30 04:28:31;;;;;;;23.07;5.30;;;1.70;97.30;;;;;;4976218;28;20207;-82
2021/11/30 04:30:57;;;;;;;13.50;5.33;;;1.80;97.30;;;;;;4975469;28;20183;-82
2021/11/30 04:33:23;;;;;;;16.67;6.30;;;1.80;97.30;;;;;;4974366;28;20410;-81
2021/11/30 04:35:48;;;;;;;11.50;5.50;;;1.80;97.30;;;;;;4974644;28;20203;-82
2021/11/30 04:38:14;;;;;;;14.70;5.30;;;1.80;97.30;;;;;;4976519;28;20178;-81
2021/11/30 04:40:39;;;;;;;11.03;5.20;;;1.80;97.30;;;;;;4978106;28;20183;-83
2021/11/30 04:43:08;;;;;;;11.00;5.23;;;1.90;97.30;;;;;;4976309;28;20186;-83
2021/11/30 04:45:49;;;;;;;11.40;5.20;;;1.90;97.30;;;;;;4975269;28;20730;-82
2021/11/30 04:48:15;;;;;;;12.17;5.00;;;1.90;97.30;;;;;;4974255;28;20457;-80
2021/11/30 04:50:44;;;;;;;15.50;6.63;;;1.90;97.30;;;;;;4975522;28;20413;-82
2021/11/30 04:53:10;;;;;;;15.93;4.37;;;1.90;97.30;;;;;;4974503;28;20960;-83
2021/11/30 04:55:36;;;;;;;10.47;5.53;;;2.00;97.30;;;;;;4974759;28;20441;-83
2021/11/30 04:58:03;;;;;;;11.87;4.73;;;2.00;97.30;;;;;;4976812;28;20182;-82
2021/11/30 05:00:30;;;;;;;11.90;5.50;;;2.10;97.30;;;;;;4976091;28;20233;-81
2021/11/30 05:02:56;;;;;;;11.70;5.20;;;2.10;97.30;;;;;;4976165;28;20429;-81
2021/11/30 05:05:22;;;;;;;9.40;4.27;;;2.20;97.30;;;;;;4975518;28;20448;-82
2021/11/30 05:07:48;;;;;;;15.83;6.07;;;2.20;97.30;;;;;;4976686;28;20272;-82
2021/11/30 05:10:14;;;;;;;14.33;6.60;;;2.20;97.30;;;;;;4975529;28;20418;-82
2021/11/30 05:12:41;;;;;;;10.97;5.07;;;2.20;97.30;;;;;;4975157;28;20178;-81
2021/11/30 05:15:08;;;;;;;14.03;6.30;;;2.30;97.30;;;;;;4977494;28;20417;-82
2021/11/30 05:17:33;;;;;;;11.70;4.47;;;2.30;97.30;;;;;;4976184;28;20450;-79
2021/11/30 05:19:59;;;;;;;18.77;6.60;;;2.30;97.30;;;;;;4976539;28;20802;-80
2021/11/30 05:22:25;;;;;;;18.00;5.60;;;2.40;97.30;;;;;;4976283;28;20537;-81
2021/11/30 05:24:51;;;;;;;12.17;5.27;;;2.40;97.30;;;;;;4976424;28;20553;-81
2021/11/30 05:27:17;;;;;;;9.73;4.30;;;2.40;97.30;;;;;;4976181;28;20464;-81
2021/11/30 05:29:42;;;;;;;13.00;5.80;;;2.50;97.30;;;;;;4976267;28;20210;-80
2021/11/30 05:32:08;;;;;;;10.23;4.83;;;2.50;97.30;;;;;;4976295;28;20213;-79
2021/11/30 05:34:33;;;;;;;10.40;6.33;;;2.60;97.30;;;;;;4976051;28;20213;-80
2021/11/30 05:36:59;;;;;;;10.43;4.90;;;2.60;97.30;;;;;;4976245;28;20210;-79
2021/11/30 05:39:25;;;;;;;12.83;4.60;;;2.60;97.30;;;;;;4976625;28;20233;-78
2021/11/30 05:41:50;;;;;;;17.20;4.67;;;2.60;97.30;;;;;;4976212;28;20186;-80
2021/11/30 05:44:16;;;;;;;11.23;5.33;;;2.60;97.30;;;;;;4977528;28;20194;-81
2021/11/30 05:46:45;;;;;;;7.33;4.27;;;2.60;97.30;;;;;;4977092;28;20743;-81
2021/11/30 05:49:11;;;;;;;10.17;4.70;;;2.60;97.30;;;;;;4977613;28;20202;-78
2021/11/30 05:51:37;;;;;;;10.70;5.20;;;2.60;97.30;;;;;;4976159;28;20477;-80
2021/11/30 05:54:03;;;;;;;9.13;4.60;;;2.60;97.30;;;;;;4975147;28;20586;-81
2021/11/30 05:56:28;;;;;;;12.40;4.80;;;2.60;97.30;;;;;;4976209;28;20221;-81
2021/11/30 05:58:54;;;;;;;9.63;4.70;;;2.60;97.30;;;;;;4975608;28;20937;-82
2021/11/30 06:01:22;;;;;;;13.60;4.93;;;2.50;97.30;;;;;;4974707;28;20234;-82
2021/11/30 06:06:16;;;;;;;9.90;5.13;;;2.50;97.30;;;;;;4975969;28;20437;-83
2021/11/30 06:08:42;;;;;;;7.80;4.30;;;2.50;97.30;;;;;;4974698;28;20536;-82
2021/11/30 06:11:07;;;;;;;9.73;4.50;;;2.50;97.30;;;;;;4976171;28;20457;-82
2021/11/30 06:13:33;;;;;;;15.47;5.20;;;2.50;97.30;;;;;;4975334;28;20178;-83
2021/11/30 06:15:59;;;;;;;13.67;5.63;;;2.50;97.30;;;;;;4975531;28;20197;-81
2021/11/30 06:18:24;;;;;;;9.73;5.03;;;2.40;97.30;;;;;;4978523;28;20179;-83
2021/11/30 06:20:50;;;;;;;8.40;4.47;;;2.40;97.30;;;;;;4979875;28;20186;-82
2021/11/30 06:23:16;;;;;;;7.43;3.60;;;2.40;97.30;;;;;;4978604;28;20190;-83
2021/11/30 06:25:42;;;;;;;7.87;3.77;;;2.30;97.30;;;;;;4977297;28;20445;-82
2021/11/30 06:28:07;;;;;;;9.23;5.37;;;2.30;97.30;;;;;;4976621;28;20464;-78
2021/11/30 06:30:33;;;;;;;9.57;4.20;;;2.30;97.30;;;;;;4977135;28;20174;-78
2021/11/30 06:32:58;;;;;;;5.60;3.80;;;2.30;97.30;;;;;;4978116;28;20233;-78
2021/11/30 06:35:24;;;;;;;7.80;4.33;;;2.30;97.30;;;;;;4977382;28;20181;-82
2021/11/30 06:37:50;;;;;;;9.27;3.50;;;2.30;97.30;;;;;;4977642;28;20183;-81
2021/11/30 06:40:16;;;;;;;6.70;5.13;;;2.30;97.30;;;;;;4976988;28;20179;-83
2021/11/30 06:42:42;;;;;;;10.37;3.50;;;2.40;97.30;;;;;;4994337;28;20505;-78
2021/11/30 06:45:08;;;;;;;7.60;3.27;;;2.40;97.30;;;;;;5013775;28;20231;-77
2021/11/30 06:47:34;;;;;;;7.00;3.63;;;2.40;97.30;;;;;;5017463;28;20201;-77
2021/11/30 06:50:00;;;;;;;4.10;2.40;;;2.40;97.30;;;;;;5016854;28;20412;-79
2021/11/30 06:52:26;;;;;;;6.50;3.80;;;2.40;97.30;;;;;;4995001;28;20519;-82
2021/11/30 06:54:54;;;;;;;18.43;4.80;;;2.50;97.30;;;;;;5000117;28;20421;-82
2021/11/30 06:57:21;;;;;;;7.10;3.50;;;2.50;97.30;;;;;;5002988;28;20444;-77
2021/11/30 06:59:47;;;;;;;6.03;3.20;;;2.50;97.30;;;;;;4981802;28;20907;-84
2021/11/30 07:02:13;;;;;;;2.97;2.60;;;2.40;97.30;;;;;;4978309;28;20465;-82
2021/11/30 07:04:48;;;;;;;5.40;2.43;;;2.50;97.30;;;;;;4978569;28;20426;-82
2021/11/30 07:07:33;;;;;;;3.60;2.40;;;2.40;97.30;;;;;;4981260;28;20445;-80
2021/11/30 07:10:12;;;;;;;3.00;2.10;;;2.40;97.30;;;;;;4979543;28;20461;-81
2021/11/30 07:15:09;;;;;;;2.27;1.90;;;2.50;97.30;;;;;;4979630;28;20504;-78
2021/11/30 07:17:35;;;;;;;4.30;2.17;;;2.50;97.30;;;;;;4978002;28;20198;-79
2021/11/30 07:20:01;;;;;;;2.20;1.60;;;2.50;97.30;;;;;;4976610;28;20410;-78
2021/11/30 07:22:26;;;;;;;3.03;2.50;;;2.50;97.30;;;;;;4977009;28;20930;-80
2021/11/30 07:24:53;;;;;;;1.90;1.90;;;2.50;97.30;;;;;;4977035;28;20416;-80
2021/11/30 07:27:19;;;;;;;2.43;2.00;;;2.50;97.30;;;;;;4977738;28;20741;-81
2021/11/30 07:29:44;;;;;;;2.87;1.93;;;2.50;97.30;;;;;;4976012;28;20465;-79
2021/11/30 07:32:10;;;;;;;2.60;2.40;;;2.50;97.30;;;;;;4977317;28;20551;-81
2021/11/30 07:34:37;;;;;;;3.67;2.00;;;2.60;97.30;;;;;;4977578;28;20759;-80
2021/11/30 07:37:03;;;;;;;5.57;2.20;;;2.50;97.30;;;;;;4976045;28;20430;-82
2021/11/30 07:39:29;;;;;;;2.33;1.57;;;2.60;97.30;;;;;;4977160;28;20418;-81
2021/11/30 07:41:55;;;;;;;2.13;1.60;;;2.60;97.30;;;;;;4977481;28;20422;-82
2021/11/30 07:44:20;;;;;;;5.90;2.10;;;2.50;97.30;;;;;;4978668;28;20189;-81
2021/11/30 07:46:46;;;;;;;2.10;1.77;;;2.50;97.30;;;;;;4978595;28;20792;-83
2021/11/30 07:49:12;;;;;;;1.47;1.37;;;2.50;97.30;;;;;;4978653;28;20244;-81
2021/11/30 07:51:39;;;;;;;1.70;1.40;;;2.50;97.30;;;;;;4977305;28;20214;-82
2021/11/30 07:54:05;;;;;;;1.67;1.60;;;2.50;97.30;;;;;;4979340;28;20417;-78
2021/11/30 07:56:31;;;;;;;2.93;1.80;;;2.50;97.30;;;;;;4976782;28;20974;-77
2021/11/30 07:58:58;;;;;;;1.57;1.40;;;2.50;97.30;;;;;;4976997;28;20421;-83
2021/11/30 08:01:23;;;;;;;3.20;1.73;;;2.50;97.30;;;;;;4977362;28;20466;-83
2021/11/30 08:03:49;;;;;;;6.10;2.30;;;2.50;97.30;;;;;;4978061;28;20418;-83
2021/11/30 08:06:15;;;;;;;2.37;1.33;;;2.50;97.30;;;;;;4977360;28;20699;-82
2021/11/30 08:08:41;;;;;;;2.03;1.70;;;2.60;97.30;;;;;;4976372;28;20206;-82
2021/11/30 08:11:07;;;;;;;1.43;1.27;;;2.60;97.30;;;;;;4977092;28;20178;-82
2021/11/30 08:13:33;;;;;;;1.60;1.50;;;2.60;97.30;;;;;;4975995;28;20422;-82
2021/11/30 08:15:59;;;;;;;2.03;1.43;;;2.60;97.30;;;;;;4976412;28;21196;-79
2021/11/30 08:18:24;;;;;;;2.50;1.97;;;2.60;97.30;;;;;;4977341;28;20186;-83
2021/11/30 08:20:50;;;;;;;1.37;1.27;;;2.60;97.30;;;;;;4974820;28;20182;-80
2021/11/30 08:23:16;;;;;;;2.23;1.40;;;2.60;97.30;;;;;;4975185;28;20632;-81
2021/11/30 08:25:42;;;;;;;4.83;2.27;;;2.60;97.30;;;;;;4973286;28;20488;-79
2021/11/30 08:28:08;;;;;;;2.30;1.67;;;2.60;97.30;;;;;;4973085;28;20208;-76
2021/11/30 08:30:34;;;;;;;4.70;1.30;;;2.60;97.30;;;;;;4974755;28;20417;-81
2021/11/30 08:33:00;;;;;;;2.70;1.40;;;2.70;97.30;;;;;;4974296;28;20410;-77
2021/11/30 08:35:25;;;;;;;1.40;1.30;;;2.70;97.30;;;;;;4973295;28;20229;-77
2021/11/30 08:37:51;;;;;;;2.50;1.43;;;2.80;97.30;;;;;;4974217;28;20932;-78
2021/11/30 08:40:16;;;;;;;1.00;1.00;;;2.80;97.30;;;;;;4974826;28;20179;-84
2021/11/30 08:42:43;;;;;;;1.40;1.30;;;2.90;97.30;;;;;;4975647;28;20186;-78
2021/11/30 08:45:10;;;;;;;1.30;1.20;;;3.00;97.30;;;;;;4974970;28;20195;-82
2021/11/30 08:47:37;;;;;;;1.30;1.20;;;3.10;97.30;;;;;;4975597;28;20421;-83
2021/11/30 08:50:10;;;;;;;1.37;1.30;;;3.10;97.30;;;;;;4974392;28;20798;-81
2021/11/30 08:52:36;;;;;;;2.07;1.30;;;3.20;97.30;;;;;;4974853;28;20414;-77
2021/11/30 08:55:03;;;;;;;1.30;1.20;;;3.20;97.30;;;;;;4973727;28;20951;-80
2021/11/30 08:57:29;;;;;;;3.50;1.30;;;3.20;97.30;;;;;;4973583;28;20438;-82
2021/11/30 08:59:55;;;;;;;1.47;1.40;;;3.30;97.30;;;;;;4989094;28;20413;-80
2021/11/30 09:02:21;;;;;;;1.43;1.33;;;3.40;97.30;;;;;;4973085;28;20477;-80
2021/11/30 09:04:47;;;;;;;1.00;0.90;;;3.40;97.30;;;;;;4972910;28;20182;-77
2021/11/30 09:07:15;;;;;;;1.30;1.20;;;3.50;97.30;;;;;;4973257;28;20517;-78
2021/11/30 09:09:43;;;;;;;1.53;1.20;;;3.50;97.30;;;;;;4972879;28;20561;-79
2021/11/30 09:12:09;;;;;;;1.10;1.00;;;3.50;97.30;;;;;;4976025;28;20442;-81
2021/11/30 09:14:35;;;;;;;1.00;0.90;;;3.60;97.30;;;;;;4984167;28;20926;-79
2021/11/30 09:17:01;;;;;;;1.43;1.03;;;3.60;97.30;;;;;;4992190;28;20444;-76
2021/11/30 09:19:27;;;;;;;2.60;1.00;;;3.60;97.30;;;;;;4991602;28;20815;-79
2021/11/30 09:21:55;;;;;;;1.30;1.20;;;3.70;97.30;;;;;;4992096;28;20429;-79
2021/11/30 09:24:20;;;;;;;1.00;0.90;;;3.70;97.30;;;;;;4993380;28;20655;-78
2021/11/30 09:26:47;;;;;;;1.97;1.40;;;3.70;97.30;;;;;;4992478;28;20448;-77
2021/11/30 09:29:12;;;;;;;1.63;1.30;;;3.80;97.30;;;;;;4991275;28;20213;-78
2021/11/30 09:31:39;;;;;;;1.30;1.20;;;3.80;97.30;;;;;;4992652;28;20420;-78
2021/11/30 09:34:04;;;;;;;4.17;1.60;;;3.80;97.30;;;;;;4991896;28;20273;-79
2021/11/30 09:36:34;;;;;;;1.90;1.43;;;3.90;97.30;;;;;;4984256;28;20560;-80
2021/11/30 09:39:02;;;;;;;1.20;1.10;;;3.90;97.30;;;;;;4971921;28;20204;-79
2021/11/30 09:41:28;;;;;;;2.03;1.30;;;4.00;97.30;;;;;;4973090;28;20603;-77
2021/11/30 09:43:55;;;;;;;1.70;1.00;;;4.00;97.30;;;;;;4974518;28;20421;-77
2021/11/30 09:46:21;;;;;;;1.10;1.00;;;4.00;97.30;;;;;;4973821;28;20473;-78
2021/11/30 09:48:47;;;;;;;1.00;0.90;;;4.00;97.30;;;;;;4975456;28;20556;-77
2021/11/30 09:51:13;;;;;;;1.20;1.10;;;4.10;97.30;;;;;;4992237;28;20947;-78
2021/11/30 09:53:38;;;;;;;1.00;1.00;;;4.10;97.30;;;;;;4995150;28;20417;-77
2021/11/30 09:56:05;;;;;;;1.10;1.00;;;4.10;97.30;;;;;;4995774;28;20468;-79
2021/11/30 09:58:31;;;;;;;1.10;1.00;;;4.10;97.30;;;;;;4995881;28;20185;-79
2021/11/30 10:00:59;;;;;;;1.23;1.13;;;4.20;97.30;;;;;;4988489;28;20470;-77
2021/11/30 10:03:25;;;;;;;1.40;1.30;;;4.20;97.30;;;;;;4975436;28;20455;-78
2021/11/30 10:05:52;;;;;;;1.50;1.10;;;4.20;97.30;;;;;;4977119;28;20776;-77
2021/11/30 10:08:35;;;;;;;0.80;0.70;;;4.20;97.30;;;;;;5011563;28;20461;-78
2021/11/30 10:11:04;;;;;;;1.20;1.10;;;4.30;97.30;;;;;;4993581;28;20788;-77
2021/11/30 10:13:30;;;;;;;1.20;1.10;;;4.30;97.30;;;;;;4996126;28;20405;-78
2021/11/30 10:15:59;;;;;;;1.13;1.03;;;4.30;97.30;;;;;;4994444;28;21052;-76
2021/11/30 10:18:26;;;;;;;1.30;1.20;;;4.30;97.30;;;;;;4974736;28;20475;-77
2021/11/30 10:21:13;;;;;;;3.17;1.00;;;4.40;97.30;;;;;;4978747;28;20523;-76
2021/11/30 10:23:55;;;;;;;1.60;1.03;;;4.40;97.30;;;;;;4995092;28;20430;-77
2021/11/30 10:26:35;;;;;;;1.23;1.13;;;4.40;97.30;;;;;;4995297;28;20516;-78
2021/11/30 10:29:05;;;;;;;1.17;1.07;;;4.50;97.30;;;;;;4994874;28;20456;-78
2021/11/30 10:31:37;;;;;;;1.53;1.13;;;4.50;97.30;;;;;;4994286;28;20445;-78
2021/11/30 10:34:15;;;;;;;1.20;1.10;;;4.60;97.30;;;;;;4994807;28;21116;-77
2021/11/30 10:36:47;;;;;;;1.17;1.17;;;4.60;97.30;;;;;;4994147;28;20600;-77
2021/11/30 10:39:22;;;;;;;1.30;1.20;;;4.60;97.30;;;;;;4994558;28;20421;-75
2021/11/30 10:41:49;;;;;;;1.10;1.03;;;4.70;97.30;;;;;;4983703;28;20436;-76
2021/11/30 10:44:16;;;;;;;1.00;1.00;;;4.80;97.30;;;;;;4980358;28;20513;-74
2021/11/30 10:46:41;;;;;;;1.23;1.13;;;4.80;97.30;;;;;;4994975;28;21005;-75
2021/11/30 10:49:09;;;;;;;1.10;1.00;;;4.90;97.30;;;;;;4993544;28;20491;-77
2021/11/30 10:51:47;;;;;;;1.30;1.20;;;4.90;97.30;;;;;;4991666;28;20186;-77
2021/11/30 10:54:15;;;;;;;1.23;1.10;;;4.90;97.30;;;;;;4994992;28;20405;-77
2021/11/30 10:56:41;;;;;;;2.03;1.00;;;5.00;97.30;;;;;;4995711;28;20437;-77
2021/11/30 10:59:07;;;;;;;1.00;1.00;;;5.00;97.30;;;;;;4993068;28;20500;-78
2021/11/30 11:01:33;;;;;;;1.63;1.10;;;5.00;97.30;;;;;;4991302;28;20623;-78
2021/11/30 11:04:06;;;;;;;1.60;1.50;;;5.00;97.30;;;;;;4971971;28;20186;-76
2021/11/30 11:06:35;;;;;;;1.37;1.00;;;5.00;97.30;;;;;;4973962;28;20532;-77
2021/11/30 11:09:11;;;;;;;1.20;1.10;;;5.00;97.30;;;;;;4975010;28;20512;-75
2021/11/30 11:11:44;;;;;;;1.33;1.20;;;5.00;97.30;;;;;;4975813;28;20437;-78
2021/11/30 11:14:24;;;;;;;1.90;1.10;;;5.10;97.30;;;;;;4975206;28;20413;-78
2021/11/30 11:16:53;;;;;;;1.60;1.10;;;5.10;97.30;;;;;;4974516;28;20557;-79
2021/11/30 11:19:38;;;;;;;1.10;1.00;;;5.10;97.30;;;;;;4974808;28;20433;-78
2021/11/30 11:22:20;;;;;;;1.30;1.20;;;5.10;97.30;;;;;;4974719;28;20410;-77
2021/11/30 11:24:50;;;;;;;1.37;1.10;;;5.10;97.30;;;;;;4974221;28;20436;-78
2021/11/30 11:27:16;;;;;;;1.20;1.10;;;5.10;97.30;;;;;;4974726;28;20449;-78
2021/11/30 11:29:43;;;;;;;1.10;1.10;;;5.10;97.30;;;;;;4974291;28;20576;-78
2021/11/30 11:32:10;;;;;;;1.10;1.00;;;5.10;97.30;;;;;;4975420;28;20422;-77
2021/11/30 11:34:37;;;;;;;1.20;1.10;;;5.20;97.30;;;;;;4976805;28;20420;-78
2021/11/30 11:37:09;;;;;;;1.53;1.30;;;5.20;97.30;;;;;;4975617;28;20946;-77
2021/11/30 11:39:36;;;;;;;1.13;1.10;;;5.20;97.30;;;;;;4973471;28;20453;-74
2021/11/30 11:42:10;;;;;;;1.00;0.93;;;5.20;97.30;;;;;;4975760;28;20424;-76
2021/11/30 11:44:37;;;;;;;1.60;1.20;;;5.20;97.30;;;;;;4975090;28;20505;-78
2021/11/30 11:47:24;;;;;;;0.93;0.90;;;5.20;97.30;;;;;;4975364;28;20472;-77
2021/11/30 11:49:52;;;;;;;1.30;1.20;;;5.20;97.30;;;;;;4973650;28;20465;-76
2021/11/30 11:52:21;;;;;;;1.10;1.00;;;5.10;97.30;;;;;;4975283;28;20402;-78
2021/11/30 11:55:15;;;;;;;1.20;1.10;;;5.20;97.30;;;;;;4974099;28;20414;-78
2021/11/30 11:58:01;;;;;;;1.20;1.10;;;5.20;97.30;;;;;;4974555;28;20414;-79
2021/11/30 12:00:33;;;;;;;7.30;1.40;;;5.20;97.30;;;;;;4973973;28;20418;-78
2021/11/30 12:03:03;;;;;;;1.07;0.97;;;5.20;97.30;;;;;;4973632;28;20410;-77
2021/11/30 12:05:52;;;;;;;1.10;1.00;;;5.20;97.30;;;;;;4973291;28;20422;-78
2021/11/30 12:08:26;;;;;;;1.10;1.03;;;5.20;97.30;;;;;;4974658;28;20458;-76
2021/11/30 12:10:52;;;;;;;1.70;1.60;;;5.10;97.30;;;;;;4974572;28;20821;-79
2021/11/30 12:13:22;;;;;;;1.50;1.40;;;5.10;97.30;;;;;;4975968;28;20425;-79
2021/11/30 12:16:02;;;;;;;1.20;1.10;;;5.10;97.30;;;;;;4974427;28;20434;-77
2021/11/30 12:18:35;;;;;;;1.47;1.13;;;5.10;97.30;;;;;;4974571;28;20412;-78
2021/11/30 12:21:07;;;;;;;1.10;1.00;;;5.10;97.30;;;;;;4973787;28;20414;-78
2021/11/30 12:23:34;;;;;;;1.57;1.23;;;5.10;97.30;;;;;;4972913;28;20422;-75
2021/11/30 12:26:00;;;;;;;0.83;0.80;;;5.20;97.30;;;;;;4972331;28;20452;-77
2021/11/30 12:28:35;;;;;;;1.10;1.00;;;5.10;97.30;;;;;;4973631;28;20947;-78
2021/11/30 12:31:01;;;;;;;1.10;1.00;;;5.10;97.30;;;;;;4973152;28;20198;-76
2021/11/30 12:33:33;;;;;;;2.50;0.90;;;5.10;97.30;;;;;;4972669;28;20936;-78
2021/11/30 12:35:59;;;;;;;1.07;1.00;;;5.10;97.30;;;;;;4973417;28;21038;-78
2021/11/30 12:38:32;;;;;;;1.13;1.10;;;5.10;97.30;;;;;;4974268;28;20460;-81
2021/11/30 12:41:00;;;;;;;0.97;0.87;;;5.10;97.30;;;;;;4973691;28;20221;-80
2021/11/30 12:43:31;;;;;;;1.10;1.00;;;5.10;97.30;;;;;;4973482;28;21011;-78
2021/11/30 12:46:02;;;;;;;1.10;1.00;;;5.10;97.30;;;;;;4981414;28;20812;-78
2021/11/30 12:48:37;;;;;;;1.00;0.90;;;5.10;97.30;;;;;;4975067;28;20465;-77
2021/11/30 12:51:34;;;;;;;1.10;1.00;;;5.10;97.30;;;;;;4973604;28;20549;-77
2021/11/30 12:54:01;;;;;;;1.33;1.10;;;5.00;97.30;;;;;;4974100;28;20411;-77
2021/11/30 12:56:47;;;;;;;1.63;1.20;;;5.00;97.30;;;;;;4975963;28;20430;-80
2021/11/30 12:59:35;;;;;;;4.53;1.20;;;4.90;97.30;;;;;;4973722;28;20500;-78
2021/11/30 13:02:21;;;;;;;2.17;1.50;;;4.90;97.30;;;;;;4973724;28;20995;-77
2021/11/30 13:04:48;;;;;;;1.33;1.30;;;4.80;97.30;;;;;;4974332;28;20413;-79
2021/11/30 13:07:16;;;;;;;2.40;1.30;;;4.70;97.30;;;;;;4973602;28;20468;-79
2021/11/30 13:09:51;;;;;;;1.27;1.23;;;4.70;97.30;;;;;;4972787;28;20520;-77
2021/11/30 13:12:20;;;;;;;1.53;1.40;;;4.70;97.30;;;;;;4973153;28;20421;-80